Time,TemperatureF,DewpointF,PressureIn,WindDirection,WindDirectionDegrees,WindSpeedMPH,WindSpeedGustMPH,Humidity,HourlyPrecipIn,Conditions,Clouds,dailyrainin,SoftwareType,DateUTC
2013-11-24 00:02:00,4.3,-4.3,30.69,West,270,7.8,7.8,67,0.00,,OVC,0.00,WeatherDisplay:10.37,2013-11-24 06:02:00,
2013-11-24 00:07:00,4.1,-4.4,30.69,WNW,292,6.0,8.1,67,0.00,,OVC,0.00,WeatherDisplay:10.37,2013-11-24 06:07:00,
2013-11-24 00:12:00,3.9,-4.6,30.68,WNW,292,6.7,6.9,67,0.00,,OVC,0.00,WeatherDisplay:10.37,2013-11-24 06:12:00,
2013-11-24 00:17:00,3.9,-4.9,30.68,WNW,292,6.0,6.0,66,0.00,,OVC,0.00,WeatherDisplay:10.37,2013-11-24 06:17:00,
2013-11-24 00:22:00,4.5,-4.4,30.68,WNW,292,5.4,5.8,66,0.00,,OVC,0.00,WeatherDisplay:10.37,2013-11-24 06:22:00,
2013-11-24 00:27:00,4.6,-4.6,30.68,WNW,292,4.7,4.7,65,0.00,,OVC,0.00,WeatherDisplay:10.37,2013-11-24 06:27:00,
2013-11-24 00:32:00,4.6,-4.6,30.68,WNW,292,6.0,6.0,65,0.00,,OVC,0.00,WeatherDisplay:10.37,2013-11-24 06:32:00,
2013-11-24 00:37:00,4.6,-4.6,30.68,WNW,292,5.4,5.8,65,0.00,,OVC,0.00,WeatherDisplay:10.37,2013-11-24 06:37:00,
2013-11-24 00:42:00,4.6,-4.9,30.68,WNW,292,3.8,4.6,64,0.00,,OVC,0.00,WeatherDisplay:10.37,2013-11-24 06:42:00,
2013-11-24 00:47:00,4.8,-4.7,30.67,WNW,292,3.8,3.8,64,0.00,,OVC,0.00,WeatherDisplay:10.37,2013-11-24 06:47:00,
2013-11-24 00:52:00,4.8,-4.7,30.67,WNW,292,4.0,4.6,64,0.00,,OVC,0.00,WeatherDisplay:10.37,2013-11-24 06:52:00,
2013-11-24 00:57:00,5.0,-4.5,30.67,WNW,292,4.0,4.6,64,0.00,,OVC,0.00,WeatherDisplay:10.37,2013-11-24 06:57:00,
2013-11-24 01:02:00,5.4,-4.5,30.67,North,0,3.1,3.5,63,0.00,,OVC,0.00,WeatherDisplay:10.37,2013-11-24 07:02:00,
2013-11-24 01:07:00,5.4,-4.5,30.67,North,0,2.6,2.6,63,0.00,,OVC,0.00,WeatherDisplay:10.37,2013-11-24 07:07:00,
2013-11-24 01:12:00,5.5,-4.3,30.67,North,0,0.0,2.3,63,0.00,,OVC,0.00,WeatherDisplay:10.37,2013-11-24 07:12:00,
2013-11-24 01:17:00,5.4,-4.2,30.67,North,0,0.2,1.2,64,0.00,,OVC,0.00,WeatherDisplay:10.37,2013-11-24 07:17:00,
2013-11-24 01:22:00,5.7,-3.8,30.67,North,0,2.6,2.6,64,0.00,,OVC,0.00,WeatherDisplay:10.37,2013-11-24 07:22:00,
2013-11-24 01:27:00,5.7,-3.8,30.67,WNW,292,3.1,3.5,64,0.00,,OVC,0.00,WeatherDisplay:10.37,2013-11-24 07:27:00,
2013-11-24 01:32:00,5.7,-3.8,30.66,WNW,292,2.9,4.6,64,0.00,,OVC,0.00,WeatherDisplay:10.37,2013-11-24 07:32:00,
2013-11-24 01:37:00,5.7,-3.8,30.66,WNW,292,1.8,2.3,64,0.00,,OVC,0.00,WeatherDisplay:10.37,2013-11-24 07:37:00,
2013-11-24 01:42:00,5.5,-3.7,30.67,WNW,292,3.8,3.8,65,0.00,,OVC,0.00,WeatherDisplay:10.37,2013-11-24 07:42:00,
2013-11-24 01:47:00,5.2,-4.0,30.67,WNW,292,3.3,3.5,65,0.00,,OVC,0.00,WeatherDisplay:10.37,2013-11-24 07:47:00,
2013-11-24 01:52:00,4.8,-4.1,30.67,WNW,292,2.4,2.4,66,0.00,,OVC,0.00,WeatherDisplay:10.37,2013-11-24 07:52:00,
2013-11-24 01:57:00,4.3,-4.6,30.68,WNW,292,2.9,3.5,66,0.00,,OVC,0.00,WeatherDisplay:10.37,2013-11-24 07:57:00,
2013-11-24 02:02:00,3.9,-4.6,30.68,WNW,292,3.6,4.6,67,0.00,,OVC,0.00,WeatherDisplay:10.37,2013-11-24 08:02:00,
2013-11-24 02:07:00,3.9,-4.9,30.68,WNW,292,2.6,3.5,66,0.00,,OVC,0.00,WeatherDisplay:10.37,2013-11-24 08:07:00,
2013-11-24 02:12:00,3.9,-5.2,30.68,WNW,292,2.4,3.5,65,0.00,,OVC,0.00,WeatherDisplay:10.37,2013-11-24 08:12:00,
2013-11-24 02:17:00,4.3,-5.2,30.67,WNW,292,4.0,4.6,64,0.00,,OVC,0.00,WeatherDisplay:10.37,2013-11-24 08:17:00,
2013-11-24 02:22:00,4.5,-5.0,30.67,WNW,292,2.6,3.5,64,0.00,,OVC,0.00,WeatherDisplay:10.37,2013-11-24 08:22:00,
2013-11-24 02:27:00,4.6,-5.2,30.67,North,0,2.4,2.4,63,0.00,,OVC,0.00,WeatherDisplay:10.37,2013-11-24 08:27:00,
2013-11-24 02:32:00,4.8,-5.0,30.67,WNW,292,3.1,3.5,63,0.00,,OVC,0.00,WeatherDisplay:10.37,2013-11-24 08:32:00,
2013-11-24 02:37:00,5.0,-5.2,30.67,North,0,1.2,1.2,62,0.00,,OVC,0.00,WeatherDisplay:10.37,2013-11-24 08:37:00,
2013-11-24 02:42:00,4.6,-4.6,30.66,North,0,0.0,0.0,65,0.00,,OVC,0.00,WeatherDisplay:10.37,2013-11-24 08:42:00,
2013-11-24 02:47:00,4.1,-4.8,30.66,WNW,292,1.4,1.4,66,0.00,,OVC,0.00,WeatherDisplay:10.37,2013-11-24 08:47:00,
2013-11-24 02:52:00,3.9,-4.9,30.66,WNW,292,0.0,1.2,66,0.00,,OVC,0.00,WeatherDisplay:10.37,2013-11-24 08:52:00,
2013-11-24 02:57:00,4.1,-5.1,30.66,North,0,0.0,0.0,65,0.00,,OVC,0.00,WeatherDisplay:10.37,2013-11-24 08:57:00,
2013-11-24 03:02:00,4.1,-5.1,30.66,North,0,0.0,0.0,65,0.00,,OVC,0.00,WeatherDisplay:10.37,2013-11-24 09:02:00,
2013-11-24 03:07:00,4.3,-4.9,30.66,WNW,292,0.0,1.2,65,0.00,,OVC,0.00,WeatherDisplay:10.37,2013-11-24 09:07:00,
2013-11-24 03:12:00,4.3,-4.9,30.66,WNW,292,0.5,1.2,65,0.00,,OVC,0.00,WeatherDisplay:10.37,2013-11-24 09:12:00,
2013-11-24 03:17:00,4.3,-4.9,30.65,WNW,292,0.2,1.2,65,0.00,,OVC,0.00,WeatherDisplay:10.37,2013-11-24 09:17:00,
2013-11-24 03:23:00,4.1,-4.8,30.65,West,270,1.6,1.6,66,0.00,,OVC,0.00,WeatherDisplay:10.37,2013-11-24 09:23:00,
2013-11-24 03:28:00,4.1,-5.1,30.65,WNW,292,2.9,2.9,65,0.00,,OVC,0.00,WeatherDisplay:10.37,2013-11-24 09:28:00,
2013-11-24 03:33:00,3.9,-4.9,30.65,West,270,3.3,3.5,66,0.00,,OVC,0.00,WeatherDisplay:10.37,2013-11-24 09:33:00,
2013-11-24 03:38:00,3.6,-5.0,30.65,WNW,292,3.6,3.6,67,0.00,,OVC,0.00,WeatherDisplay:10.37,2013-11-24 09:38:00,
2013-11-24 03:43:00,3.6,-5.0,30.65,West,270,2.6,3.5,67,0.00,,OVC,0.00,WeatherDisplay:10.37,2013-11-24 09:43:00,
2013-11-24 03:48:00,3.7,-5.1,30.64,SSW,202,2.6,3.5,66,0.00,,OVC,0.00,WeatherDisplay:10.37,2013-11-24 09:48:00,
2013-11-24 03:53:00,3.6,-5.3,30.64,SSW,202,3.6,3.6,66,0.00,,OVC,0.00,WeatherDisplay:10.37,2013-11-24 09:53:00,
2013-11-24 03:58:00,3.4,-5.8,30.64,SSW,202,2.4,2.4,65,0.00,,OVC,0.00,WeatherDisplay:10.37,2013-11-24 09:58:00,
2013-11-24 04:03:00,3.2,-5.9,30.64,SSW,202,2.0,2.3,65,0.00,,OVC,0.00,WeatherDisplay:10.37,2013-11-24 10:03:00,
2013-11-24 04:08:00,3.0,-6.4,30.64,SSW,202,2.9,2.9,64,0.00,,OVC,0.00,WeatherDisplay:10.37,2013-11-24 10:08:00,
2013-11-24 04:13:00,2.8,-6.6,30.64,SSW,202,4.5,4.5,64,0.00,,OVC,0.00,WeatherDisplay:10.37,2013-11-24 10:13:00,
2013-11-24 04:18:00,3.2,-6.2,30.63,SSW,202,3.3,4.6,64,0.00,,OVC,0.00,WeatherDisplay:10.37,2013-11-24 10:18:00,
2013-11-24 04:23:00,3.2,-6.9,30.63,SSW,202,2.9,2.9,62,0.00,,OVC,0.00,WeatherDisplay:10.37,2013-11-24 10:23:00,
2013-11-24 04:28:00,3.2,-6.6,30.63,SSW,202,2.6,3.5,63,0.00,,OVC,0.00,WeatherDisplay:10.37,2013-11-24 10:28:00,
2013-11-24 04:33:00,3.4,-6.1,30.63,SSW,202,1.8,2.3,64,0.00,,OVC,0.00,WeatherDisplay:10.37,2013-11-24 10:33:00,
2013-11-24 04:38:00,3.6,-5.9,30.63,SSW,202,0.5,1.2,64,0.00,,OVC,0.00,WeatherDisplay:10.37,2013-11-24 10:38:00,
2013-11-24 04:43:00,3.6,-5.9,30.64,West,270,0.2,1.2,64,0.00,,OVC,0.00,WeatherDisplay:10.37,2013-11-24 10:43:00,
2013-11-24 04:48:00,3.7,-5.7,30.64,West,270,0.0,0.0,64,0.00,,OVC,0.00,WeatherDisplay:10.37,2013-11-24 10:48:00,
2013-11-24 04:53:00,3.7,-5.7,30.64,SSW,202,1.6,1.6,64,0.00,,OVC,0.00,WeatherDisplay:10.37,2013-11-24 10:53:00,
2013-11-24 04:58:00,3.9,-5.6,30.64,West,270,1.8,2.3,64,0.00,,OVC,0.00,WeatherDisplay:10.37,2013-11-24 10:58:00,
2013-11-24 05:03:00,3.9,-5.6,30.64,West,270,0.5,1.2,64,0.00,,OVC,0.00,WeatherDisplay:10.37,2013-11-24 11:03:00,
2013-11-24 05:08:00,4.1,-5.4,30.65,West,270,1.2,1.2,64,0.00,,OVC,0.00,WeatherDisplay:10.37,2013-11-24 11:08:00,
2013-11-24 05:13:00,4.1,-5.4,30.64,SSW,202,0.9,1.2,64,0.00,,OVC,0.00,WeatherDisplay:10.37,2013-11-24 11:13:00,
2013-11-24 05:18:00,3.9,-6.2,30.64,South,180,0.9,1.2,62,0.00,,OVC,0.00,WeatherDisplay:10.37,2013-11-24 11:18:00,
2013-11-24 05:23:00,3.9,-5.9,30.64,SSW,202,0.5,0.0,63,0.00,,OVC,0.00,WeatherDisplay:10.37,2013-11-24 11:23:00,
2013-11-24 05:28:00,3.7,-6.4,30.64,South,180,1.2,1.2,62,0.00,,OVC,0.00,WeatherDisplay:10.37,2013-11-24 11:28:00,
2013-11-24 05:33:00,3.6,-6.6,30.64,South,180,1.6,1.6,62,0.00,,OVC,0.00,WeatherDisplay:10.37,2013-11-24 11:33:00,
2013-11-24 05:38:00,3.6,-7.2,30.64,South,180,1.4,1.4,60,0.00,,OVC,0.00,WeatherDisplay:10.37,2013-11-24 11:38:00,
2013-11-24 05:43:00,3.7,-7.1,30.64,South,180,1.6,2.3,60,0.00,,OVC,0.00,WeatherDisplay:10.37,2013-11-24 11:43:00,
2013-11-24 05:48:00,3.7,-7.4,30.63,South,180,2.2,2.3,59,0.00,,OVC,0.00,WeatherDisplay:10.37,2013-11-24 11:48:00,
2013-11-24 05:53:00,3.6,-7.6,30.63,South,180,2.4,2.4,59,0.00,,OVC,0.00,WeatherDisplay:10.37,2013-11-24 11:53:00,
2013-11-24 05:58:00,3.6,-7.6,30.63,South,180,3.8,3.8,59,0.00,,OVC,0.00,WeatherDisplay:10.37,2013-11-24 11:58:00,
2013-11-24 06:03:00,3.2,-7.9,30.63,South,180,2.4,2.4,59,0.00,,OVC,0.00,WeatherDisplay:10.37,2013-11-24 12:03:00,
2013-11-24 06:08:00,3.2,-7.9,30.63,South,180,2.4,2.4,59,0.00,,OVC,0.00,WeatherDisplay:10.37,2013-11-24 12:08:00,
2013-11-24 06:13:00,3.2,-7.9,30.63,South,180,2.4,2.4,59,0.00,,OVC,0.00,WeatherDisplay:10.37,2013-11-24 12:13:00,
2013-11-24 06:18:00,3.4,-8.1,30.63,South,180,3.1,3.1,58,0.00,,OVC,0.00,WeatherDisplay:10.37,2013-11-24 12:18:00,
2013-11-24 06:23:00,3.4,-8.5,30.63,South,180,2.9,3.5,57,0.00,,OVC,0.00,WeatherDisplay:10.37,2013-11-24 12:23:00,
2013-11-24 06:28:00,3.2,-8.6,30.63,ESE,112,2.6,2.6,57,0.00,,OVC,0.00,WeatherDisplay:10.37,2013-11-24 12:28:00,
2013-11-24 06:33:00,3.2,-9.0,30.63,ESE,112,3.1,3.1,56,0.00,,OVC,0.00,WeatherDisplay:10.37,2013-11-24 12:33:00,
2013-11-24 06:38:00,3.2,-9.4,30.63,South,180,4.0,4.0,55,0.00,,OVC,0.00,WeatherDisplay:10.37,2013-11-24 12:38:00,
2013-11-24 06:43:00,3.2,-9.4,30.63,South,180,3.3,3.5,55,0.00,,OVC,0.00,WeatherDisplay:10.37,2013-11-24 12:43:00,
2013-11-24 06:48:00,3.2,-9.0,30.63,South,180,4.0,4.6,56,0.00,,OVC,0.00,WeatherDisplay:10.37,2013-11-24 12:48:00,
2013-11-24 06:53:00,3.2,-9.0,30.63,South,180,4.0,4.0,56,0.00,,OVC,0.00,WeatherDisplay:10.37,2013-11-24 12:53:00,
2013-11-24 06:58:00,3.2,-8.6,30.63,South,180,3.6,3.6,57,0.00,,OVC,0.00,WeatherDisplay:10.37,2013-11-24 12:58:00,
2013-11-24 07:03:00,3.0,-8.4,30.63,South,180,4.0,4.6,58,0.00,,OVC,0.00,WeatherDisplay:10.37,2013-11-24 13:03:00,
2013-11-24 07:08:00,2.8,-8.3,30.63,South,180,4.3,4.6,59,0.00,,OVC,0.00,WeatherDisplay:10.37,2013-11-24 13:08:00,
2013-11-24 07:13:00,2.7,-8.4,30.63,South,180,4.0,4.0,59,0.00,,OVC,0.00,WeatherDisplay:10.37,2013-11-24 13:13:00,
2013-11-24 07:18:00,2.7,-8.4,30.63,South,180,4.7,4.7,59,0.00,,OVC,0.00,WeatherDisplay:10.37,2013-11-24 13:18:00,
2013-11-24 07:23:00,2.7,-8.8,30.63,South,180,4.5,4.6,58,0.00,,OVC,0.00,WeatherDisplay:10.37,2013-11-24 13:23:00,
2013-11-24 07:28:00,2.8,-9.0,30.62,South,180,4.3,4.6,57,0.00,,OVC,0.00,WeatherDisplay:10.37,2013-11-24 13:28:00,
2013-11-24 07:33:00,3.2,-9.7,30.62,South,180,4.7,4.7,54,0.00,,OVC,0.00,WeatherDisplay:10.37,2013-11-24 13:33:00,
2013-11-24 07:38:00,3.4,-10.7,30.62,South,180,4.7,4.7,51,0.00,,OVC,0.00,WeatherDisplay:10.37,2013-11-24 13:38:00,
2013-11-24 07:43:00,4.5,-11.8,30.62,South,180,4.7,4.7,46,0.00,,OVC,0.00,WeatherDisplay:10.37,2013-11-24 13:43:00,
2013-11-24 07:48:00,5.2,-10.3,30.62,South,180,5.4,5.8,48,0.00,,OVC,0.00,WeatherDisplay:10.37,2013-11-24 13:48:00,
2013-11-24 07:53:00,5.7,-7.8,30.62,South,180,4.9,4.9,53,0.00,,OVC,0.00,WeatherDisplay:10.37,2013-11-24 13:53:00,
2013-11-24 07:58:00,6.1,-7.0,30.62,South,180,4.5,4.6,54,0.00,,OVC,0.00,WeatherDisplay:10.37,2013-11-24 13:58:00,
2013-11-24 08:03:00,6.6,-5.4,30.62,South,180,4.9,4.9,57,0.00,,OVC,0.00,WeatherDisplay:10.37,2013-11-24 14:03:00,
2013-11-24 08:08:00,7.0,-5.1,30.61,SSW,202,3.3,4.6,57,0.00,,OVC,0.00,WeatherDisplay:10.37,2013-11-24 14:08:00,
2013-11-24 08:14:00,7.5,-4.9,30.62,South,180,3.3,3.5,56,0.00,,OVC,0.00,WeatherDisplay:10.37,2013-11-24 14:14:00,
2013-11-24 08:18:00,8.1,-4.4,30.62,SSW,202,4.7,4.7,56,0.00,,OVC,0.00,WeatherDisplay:10.37,2013-11-24 14:18:00,
2013-11-24 08:24:00,8.2,-2.8,30.61,South,180,4.7,5.8,60,0.00,,OVC,0.00,WeatherDisplay:10.37,2013-11-24 14:24:00,
2013-11-24 08:29:00,8.6,-3.2,30.61,SSW,202,7.1,7.1,58,0.00,,OVC,0.00,WeatherDisplay:10.37,2013-11-24 14:29:00,
2013-11-24 08:34:00,9.1,-3.8,30.61,SSW,202,8.3,8.3,55,0.00,,OVC,0.00,WeatherDisplay:10.37,2013-11-24 14:34:00,
2013-11-24 08:39:00,9.3,-2.5,30.61,SSW,202,7.4,7.4,58,0.00,,OVC,0.00,WeatherDisplay:10.37,2013-11-24 14:39:00,
2013-11-24 08:44:00,9.9,-2.0,30.61,South,180,4.5,8.1,58,0.00,,OVC,0.00,WeatherDisplay:10.37,2013-11-24 14:44:00,
2013-11-24 08:49:00,10.6,-2.8,30.61,SSW,202,4.9,6.9,54,0.00,,OVC,0.00,WeatherDisplay:10.37,2013-11-24 14:49:00,
2013-11-24 08:54:00,11.1,-0.8,30.61,SSW,202,6.9,8.1,58,0.00,,OVC,0.00,WeatherDisplay:10.37,2013-11-24 14:54:00,
2013-11-24 08:59:00,11.7,0.1,30.61,SSW,202,7.4,9.2,59,0.00,,OVC,0.00,WeatherDisplay:10.37,2013-11-24 14:59:00,
2013-11-24 09:04:00,12.0,0.1,30.61,SSW,202,8.3,8.3,58,0.00,,OVC,0.00,WeatherDisplay:10.37,2013-11-24 15:04:00,
2013-11-24 09:09:00,12.6,1.6,30.61,SSW,202,6.2,8.1,61,0.00,,OVC,0.00,WeatherDisplay:10.37,2013-11-24 15:09:00,
2013-11-24 09:14:00,12.9,3.7,30.61,SSW,202,9.9,9.9,66,0.00,,OVC,0.00,WeatherDisplay:10.37,2013-11-24 15:14:00,
2013-11-24 09:19:00,13.1,4.2,30.61,South,180,9.7,10.4,67,0.00,,OVC,0.00,WeatherDisplay:10.37,2013-11-24 15:19:00,
2013-11-24 09:24:00,13.3,4.7,30.60,SSW,202,7.6,7.6,68,0.00,,OVC,0.00,WeatherDisplay:10.37,2013-11-24 15:24:00,
2013-11-24 09:29:00,13.6,4.7,30.60,SSW,202,9.2,11.5,67,0.00,,OVC,0.00,WeatherDisplay:10.37,2013-11-24 15:29:00,
2013-11-24 09:34:00,14.0,4.7,30.60,SSW,202,9.0,10.4,66,0.00,,OVC,0.00,WeatherDisplay:10.37,2013-11-24 15:34:00,
2013-11-24 09:39:00,14.4,5.7,30.59,South,180,12.5,15.0,68,0.00,,OVC,0.00,WeatherDisplay:10.37,2013-11-24 15:39:00,
2013-11-24 09:44:00,14.5,6.2,30.59,SSW,202,8.7,10.4,69,0.00,,OVC,0.00,WeatherDisplay:10.37,2013-11-24 15:44:00,
2013-11-24 09:49:00,14.7,6.1,30.59,SSW,202,8.5,13.8,68,0.00,,OVC,0.00,WeatherDisplay:10.37,2013-11-24 15:49:00,
2013-11-24 09:54:00,15.1,6.4,30.59,SSW,202,9.9,16.1,68,0.00,,OVC,0.00,WeatherDisplay:10.37,2013-11-24 15:54:00,
2013-11-24 09:59:00,15.8,7.4,30.59,SSW,202,13.2,13.2,69,0.00,,OVC,0.00,WeatherDisplay:10.37,2013-11-24 15:59:00,
2013-11-24 10:04:00,15.8,7.4,30.58,SSW,202,13.5,13.8,69,0.00,,OVC,0.00,WeatherDisplay:10.37,2013-11-24 16:04:00,
2013-11-24 10:09:00,16.2,7.8,30.58,SSW,202,13.5,13.8,69,0.00,,OVC,0.00,WeatherDisplay:10.37,2013-11-24 16:09:00,
2013-11-24 10:14:00,16.5,7.8,30.58,South,180,14.3,14.3,68,0.00,,OVC,0.00,WeatherDisplay:10.37,2013-11-24 16:14:00,
2013-11-24 10:19:00,16.9,8.1,30.58,South,180,8.1,11.5,68,0.00,,OVC,0.00,WeatherDisplay:10.37,2013-11-24 16:19:00,
2013-11-24 10:24:00,17.1,8.3,30.58,SSW,202,12.1,12.7,68,0.00,,OVC,0.00,WeatherDisplay:10.37,2013-11-24 16:24:00,
2013-11-24 10:29:00,17.4,8.7,30.57,SSW,202,8.5,10.4,68,0.00,,OVC,0.00,WeatherDisplay:10.37,2013-11-24 16:29:00,
2013-11-24 10:34:00,17.4,8.3,30.57,SSW,202,9.2,12.7,67,0.00,,OVC,0.00,WeatherDisplay:10.37,2013-11-24 16:34:00,
2013-11-24 10:39:00,17.6,8.8,30.56,SSW,202,10.0,11.5,68,0.00,,OVC,0.00,WeatherDisplay:10.37,2013-11-24 16:39:00,
2013-11-24 10:44:00,17.6,8.5,30.56,SSW,202,12.5,12.5,67,0.00,,OVC,0.00,WeatherDisplay:10.37,2013-11-24 16:44:00,
2013-11-24 10:49:00,18.0,8.8,30.56,SSW,202,10.5,17.3,67,0.00,,OVC,0.00,WeatherDisplay:10.37,2013-11-24 16:49:00,
2013-11-24 10:54:00,18.3,9.2,30.56,SSW,202,12.5,12.7,67,0.00,,OVC,0.00,WeatherDisplay:10.37,2013-11-24 16:54:00,
2013-11-24 10:59:00,18.3,9.5,30.56,SSW,202,10.7,10.7,68,0.00,,OVC,0.00,WeatherDisplay:10.37,2013-11-24 16:59:00,
2013-11-24 11:04:00,18.3,9.2,30.55,South,180,13.0,13.0,67,0.00,,OVC,0.00,WeatherDisplay:10.37,2013-11-24 17:04:00,
2013-11-24 11:09:00,18.5,9.4,30.55,SSW,202,9.2,13.8,67,0.00,,OVC,0.00,WeatherDisplay:10.37,2013-11-24 17:09:00,
2013-11-24 11:14:00,18.9,9.7,30.54,South,180,13.0,13.8,67,0.00,,OVC,0.00,WeatherDisplay:10.37,2013-11-24 17:14:00,
2013-11-24 11:19:00,19.6,10.4,30.53,South,180,14.0,14.0,67,0.00,,OVC,0.00,WeatherDisplay:10.37,2013-11-24 17:19:00,
2013-11-24 11:24:00,19.8,10.2,30.53,SSW,202,11.6,11.6,66,0.00,,OVC,0.00,WeatherDisplay:10.37,2013-11-24 17:24:00,
2013-11-24 11:29:00,19.8,9.9,30.53,SSW,202,13.5,13.8,65,0.00,,OVC,0.00,WeatherDisplay:10.37,2013-11-24 17:29:00,
2013-11-24 11:34:00,20.1,10.2,30.52,SSW,202,11.6,11.6,65,0.00,,OVC,0.00,WeatherDisplay:10.37,2013-11-24 17:34:00,
2013-11-24 11:39:00,20.1,9.9,30.51,SSW,202,10.5,10.5,64,0.00,,OVC,0.00,WeatherDisplay:10.37,2013-11-24 17:39:00,
2013-11-24 11:44:00,20.5,10.2,30.51,SSW,202,12.1,12.7,64,0.00,,OVC,0.00,WeatherDisplay:10.37,2013-11-24 17:44:00,
2013-11-24 11:49:00,20.8,10.6,30.51,SSW,202,8.5,13.8,64,0.00,,OVC,0.00,WeatherDisplay:10.37,2013-11-24 17:49:00,
2013-11-24 11:54:00,20.8,9.5,30.50,SSW,202,9.4,9.4,61,0.00,,OVC,0.00,WeatherDisplay:10.37,2013-11-24 17:54:00,
2013-11-24 11:59:00,20.8,9.5,30.50,South,180,10.2,11.5,61,0.00,,OVC,0.00,WeatherDisplay:10.37,2013-11-24 17:59:00,
2013-11-24 12:04:00,21.2,10.2,30.50,SSW,202,11.6,15.0,62,0.00,,OVC,0.00,WeatherDisplay:10.37,2013-11-24 18:04:00,
2013-11-24 12:09:00,21.2,9.8,30.50,SSW,202,7.8,10.4,61,0.00,,OVC,0.00,WeatherDisplay:10.37,2013-11-24 18:09:00,
2013-11-24 12:14:00,21.2,9.8,30.50,West,270,12.1,12.7,61,0.00,,OVC,0.00,WeatherDisplay:10.37,2013-11-24 18:14:00,
2013-11-24 12:19:00,21.4,10.0,30.49,SSW,202,16.8,16.8,61,0.00,,OVC,0.00,WeatherDisplay:10.37,2013-11-24 18:19:00,
2013-11-24 12:24:00,21.6,9.8,30.49,SSW,202,12.1,16.1,60,0.00,,OVC,0.00,WeatherDisplay:10.37,2013-11-24 18:24:00,
2013-11-24 12:29:00,21.6,10.2,30.48,SSW,202,10.2,12.7,61,0.00,,OVC,0.00,WeatherDisplay:10.37,2013-11-24 18:29:00,
2013-11-24 12:34:00,21.4,9.6,30.48,SSW,202,15.9,16.1,60,0.00,,OVC,0.00,WeatherDisplay:10.37,2013-11-24 18:34:00,
2013-11-24 12:39:00,21.6,9.4,30.48,South,180,14.3,14.3,59,0.00,,OVC,0.00,WeatherDisplay:10.37,2013-11-24 18:39:00,
2013-11-24 12:44:00,21.7,10.3,30.47,SSW,202,14.7,17.3,61,0.00,,OVC,0.00,WeatherDisplay:10.37,2013-11-24 18:44:00,
2013-11-24 12:49:00,21.9,9.8,30.47,SSW,202,13.7,13.8,59,0.00,,OVC,0.00,WeatherDisplay:10.37,2013-11-24 18:49:00,
2013-11-24 12:54:00,21.9,10.1,30.47,SSW,202,13.5,13.8,60,0.00,,OVC,0.00,WeatherDisplay:10.37,2013-11-24 18:54:00,
2013-11-24 12:59:00,22.3,10.5,30.46,SSW,202,15.4,15.4,60,0.00,,OVC,0.00,WeatherDisplay:10.37,2013-11-24 18:59:00,
2013-11-24 13:04:00,22.3,9.3,30.46,SSW,202,13.5,16.1,57,0.00,,OVC,0.00,WeatherDisplay:10.37,2013-11-24 19:04:00,
2013-11-24 13:09:00,22.5,10.7,30.46,SSW,202,13.2,13.2,60,0.00,,OVC,0.00,WeatherDisplay:10.37,2013-11-24 19:09:00,
2013-11-24 13:14:00,22.6,10.8,30.45,SSW,202,9.7,12.7,60,0.00,,OVC,0.00,WeatherDisplay:10.37,2013-11-24 19:14:00,
2013-11-24 13:19:00,22.6,10.4,30.45,SSW,202,15.0,16.1,59,0.00,,OVC,0.00,WeatherDisplay:10.37,2013-11-24 19:19:00,
2013-11-24 13:24:00,22.5,10.7,30.44,South,180,13.2,13.2,60,0.00,,OVC,0.00,WeatherDisplay:10.37,2013-11-24 19:24:00,
2013-11-24 13:30:00,22.6,10.8,30.43,South,180,11.6,16.1,60,0.00,,OVC,0.00,WeatherDisplay:10.37,2013-11-24 19:30:00,
2013-11-24 13:35:00,22.6,10.1,30.43,SSW,202,13.2,16.1,58,0.00,,OVC,0.00,WeatherDisplay:10.37,2013-11-24 19:35:00,
2013-11-24 13:40:00,22.6,9.3,30.43,SSW,202,12.3,17.3,56,0.00,,OVC,0.00,WeatherDisplay:10.37,2013-11-24 19:40:00,
2013-11-24 13:45:00,22.8,10.2,30.42,SSW,202,14.3,14.3,58,0.00,,OVC,0.00,WeatherDisplay:10.37,2013-11-24 19:45:00,
2013-11-24 13:50:00,23.0,10.4,30.42,SSW,202,15.2,17.3,58,0.00,,OVC,0.00,WeatherDisplay:10.37,2013-11-24 19:50:00,
2013-11-24 13:55:00,23.0,10.0,30.42,SSW,202,11.4,16.1,57,0.00,,OVC,0.00,WeatherDisplay:10.37,2013-11-24 19:55:00,
2013-11-24 14:00:00,23.4,11.1,30.41,SSW,202,15.9,16.1,59,0.00,,OVC,0.00,WeatherDisplay:10.37,2013-11-24 20:00:00,
2013-11-24 14:05:00,23.4,11.1,30.41,SSW,202,14.3,17.3,59,0.00,,OVC,0.00,WeatherDisplay:10.37,2013-11-24 20:05:00,
2013-11-24 14:10:00,23.4,10.7,30.41,South,180,15.4,16.1,58,0.00,,OVC,0.00,WeatherDisplay:10.37,2013-11-24 20:10:00,
2013-11-24 14:15:00,23.4,10.7,30.41,SSW,202,12.8,15.0,58,0.00,,OVC,0.00,WeatherDisplay:10.37,2013-11-24 20:15:00,
2013-11-24 14:20:00,23.5,10.9,30.40,South,180,14.0,14.0,58,0.00,,OVC,0.00,WeatherDisplay:10.37,2013-11-24 20:20:00,
2013-11-24 14:25:00,23.5,10.5,30.39,SSW,202,15.4,16.1,57,0.00,,OVC,0.00,WeatherDisplay:10.37,2013-11-24 20:25:00,
2013-11-24 14:30:00,23.4,9.6,30.40,SSW,202,14.5,18.4,55,0.00,,OVC,0.00,WeatherDisplay:10.37,2013-11-24 20:30:00,
2013-11-24 14:35:00,23.4,10.0,30.39,SSW,202,12.3,13.8,56,0.00,,OVC,0.00,WeatherDisplay:10.37,2013-11-24 20:35:00,
2013-11-24 14:40:00,23.7,11.1,30.39,SSW,202,14.5,14.5,58,0.00,,OVC,0.00,WeatherDisplay:10.37,2013-11-24 20:40:00,
2013-11-24 14:45:00,23.9,10.9,30.38,SSW,202,13.2,16.1,57,0.00,,OVC,0.00,WeatherDisplay:10.37,2013-11-24 20:45:00,
2013-11-24 14:50:00,23.7,10.7,30.38,SSW,202,15.6,15.6,57,0.00,,OVC,0.00,WeatherDisplay:10.37,2013-11-24 20:50:00,
2013-11-24 14:55:00,23.7,10.7,30.38,SSW,202,13.0,19.6,57,0.00,,OVC,0.00,WeatherDisplay:10.37,2013-11-24 20:55:00,
2013-11-24 15:00:00,23.9,10.1,30.38,SSW,202,15.0,15.0,55,0.00,,OVC,0.00,WeatherDisplay:10.37,2013-11-24 21:00:00,
2013-11-24 15:05:00,23.9,10.5,30.38,SSW,202,9.2,12.7,56,0.00,,OVC,0.00,WeatherDisplay:10.37,2013-11-24 21:05:00,
2013-11-24 15:10:00,23.7,10.7,30.38,SSW,202,16.6,18.4,57,0.00,,OVC,0.00,WeatherDisplay:10.37,2013-11-24 21:10:00,
2013-11-24 15:15:00,23.7,10.7,30.37,South,180,17.7,17.7,57,0.00,,OVC,0.00,WeatherDisplay:10.37,2013-11-24 21:15:00,
2013-11-24 15:20:00,23.7,10.3,30.37,SSW,202,18.1,18.1,56,0.00,,OVC,0.00,WeatherDisplay:10.37,2013-11-24 21:20:00,
2013-11-24 15:25:00,23.5,10.5,30.37,SSW,202,16.3,17.3,57,0.00,,OVC,0.00,WeatherDisplay:10.37,2013-11-24 21:25:00,
2013-11-24 15:30:00,23.5,10.5,30.36,SSW,202,17.0,19.6,57,0.00,,OVC,0.00,WeatherDisplay:10.37,2013-11-24 21:30:00,
2013-11-24 15:35:00,23.4,10.7,30.36,SSW,202,13.5,15.0,58,0.00,,OVC,0.00,WeatherDisplay:10.37,2013-11-24 21:35:00,
2013-11-24 15:40:00,23.4,11.1,30.36,South,180,17.3,17.3,59,0.00,,OVC,0.00,WeatherDisplay:10.37,2013-11-24 21:40:00,
2013-11-24 15:45:00,23.4,11.1,30.36,South,180,13.9,17.3,59,0.00,,OVC,0.00,WeatherDisplay:10.37,2013-11-24 21:45:00,
2013-11-24 15:50:00,23.2,11.0,30.36,South,180,13.0,13.0,59,0.00,,OVC,0.00,WeatherDisplay:10.37,2013-11-24 21:50:00,
2013-11-24 15:55:00,23.2,11.0,30.36,SSW,202,17.0,17.3,59,0.00,,OVC,0.00,WeatherDisplay:10.37,2013-11-24 21:55:00,
2013-11-24 16:00:00,23.0,10.8,30.36,SSW,202,12.5,16.1,59,0.00,,OVC,0.00,WeatherDisplay:10.37,2013-11-24 22:00:00,
2013-11-24 16:05:00,23.0,11.2,30.35,South,180,14.3,14.3,60,0.00,,OVC,0.00,WeatherDisplay:10.37,2013-11-24 22:05:00,
2013-11-24 16:10:00,22.8,11.0,30.36,SSW,202,8.5,13.8,60,0.00,,OVC,0.00,WeatherDisplay:10.37,2013-11-24 22:10:00,
2013-11-24 16:16:00,22.6,11.2,30.36,SSW,202,9.4,10.4,61,0.00,,OVC,0.00,WeatherDisplay:10.37,2013-11-24 22:16:00,
2013-11-24 16:21:00,22.3,11.6,30.36,SSW,202,12.3,12.3,63,0.00,,OVC,0.00,WeatherDisplay:10.37,2013-11-24 22:21:00,
2013-11-24 16:26:00,22.3,11.6,30.36,SSW,202,9.0,12.7,63,0.00,,OVC,0.00,WeatherDisplay:10.37,2013-11-24 22:26:00,
2013-11-24 16:31:00,21.9,11.2,30.35,SSW,202,14.5,15.0,63,0.00,,OVC,0.00,WeatherDisplay:10.37,2013-11-24 22:31:00,
2013-11-24 16:36:00,21.9,11.6,30.35,SSW,202,14.3,14.3,64,0.00,,OVC,0.00,WeatherDisplay:10.37,2013-11-24 22:36:00,
2013-11-24 16:41:00,21.7,11.8,30.35,SSW,202,15.0,15.0,65,0.00,,OVC,0.00,WeatherDisplay:10.37,2013-11-24 22:41:00,
2013-11-24 16:46:00,21.6,11.6,30.35,SSW,202,11.4,12.7,65,0.00,,OVC,0.00,WeatherDisplay:10.37,2013-11-24 22:46:00,
2013-11-24 16:51:00,21.2,11.3,30.35,South,180,11.4,12.7,65,0.00,,OVC,0.00,WeatherDisplay:10.37,2013-11-24 22:51:00,
2013-11-24 16:56:00,21.2,11.3,30.34,SSW,202,12.1,12.1,65,0.00,,OVC,0.00,WeatherDisplay:10.37,2013-11-24 22:56:00,
2013-11-24 17:01:00,21.2,11.3,30.34,SSW,202,12.8,12.8,65,0.00,,OVC,0.00,WeatherDisplay:10.37,2013-11-24 23:01:00,
2013-11-24 17:06:00,21.0,11.1,30.34,South,180,10.9,11.5,65,0.00,,OVC,0.00,WeatherDisplay:10.37,2013-11-24 23:06:00,
2013-11-24 17:11:00,20.8,10.9,30.33,South,180,11.6,13.8,65,0.00,,OVC,0.00,WeatherDisplay:10.37,2013-11-24 23:11:00,
2013-11-24 17:16:00,20.8,10.9,30.33,South,180,11.8,13.8,65,0.00,,OVC,0.00,WeatherDisplay:10.37,2013-11-24 23:16:00,
2013-11-24 17:21:00,20.8,10.9,30.33,SSW,202,13.0,13.8,65,0.00,,OVC,0.00,WeatherDisplay:10.37,2013-11-24 23:21:00,
2013-11-24 17:26:00,20.7,10.7,30.33,South,180,12.8,12.8,65,0.00,,OVC,0.00,WeatherDisplay:10.37,2013-11-24 23:26:00,
2013-11-24 17:31:00,20.5,10.6,30.33,SSW,202,11.4,11.5,65,0.00,,OVC,0.00,WeatherDisplay:10.37,2013-11-24 23:31:00,
2013-11-24 17:36:00,20.5,10.6,30.33,SSW,202,12.5,15.0,65,0.00,,OVC,0.00,WeatherDisplay:10.37,2013-11-24 23:36:00,
2013-11-24 17:41:00,20.5,10.9,30.33,South,180,12.1,13.8,66,0.00,,OVC,0.00,WeatherDisplay:10.37,2013-11-24 23:41:00,
2013-11-24 17:46:00,20.5,10.9,30.33,SSW,202,13.5,13.5,66,0.00,,OVC,0.00,WeatherDisplay:10.37,2013-11-24 23:46:00,
2013-11-24 17:51:00,20.3,10.7,30.33,SSW,202,12.1,13.8,66,0.00,,OVC,0.00,WeatherDisplay:10.37,2013-11-24 23:51:00,
2013-11-24 17:56:00,20.1,10.6,30.32,South,180,11.8,11.8,66,0.00,,OVC,0.00,WeatherDisplay:10.37,2013-11-24 23:56:00,
2013-11-24 18:01:00,19.9,10.4,30.32,South,180,11.4,11.5,66,0.00,,OVC,0.00,WeatherDisplay:10.37,2013-11-25 00:01:00,
2013-11-24 18:06:00,20.1,10.6,30.32,South,180,11.2,12.7,66,0.00,,OVC,0.00,WeatherDisplay:10.37,2013-11-25 00:06:00,
2013-11-24 18:11:00,19.9,10.4,30.32,South,180,12.8,12.8,66,0.00,,OVC,0.00,WeatherDisplay:10.37,2013-11-25 00:11:00,
2013-11-24 18:16:00,20.1,10.6,30.31,SSW,202,13.0,13.0,66,0.00,,OVC,0.00,WeatherDisplay:10.37,2013-11-25 00:16:00,
2013-11-24 18:21:00,20.1,10.6,30.31,South,180,14.3,15.0,66,0.00,,OVC,0.00,WeatherDisplay:10.37,2013-11-25 00:21:00,
2013-11-24 18:26:00,20.1,10.6,30.31,SSW,202,13.0,15.0,66,0.00,,OVC,0.00,WeatherDisplay:10.37,2013-11-25 00:26:00,
2013-11-24 18:31:00,19.9,10.4,30.30,South,180,13.2,15.0,66,0.00,,OVC,0.00,WeatherDisplay:10.37,2013-11-25 00:31:00,
2013-11-24 18:36:00,19.9,10.4,30.30,South,180,14.7,14.7,66,0.00,,OVC,0.00,WeatherDisplay:10.37,2013-11-25 00:36:00,
2013-11-24 18:41:00,19.8,10.2,30.30,SSW,202,10.0,11.5,66,0.00,,OVC,0.00,WeatherDisplay:10.37,2013-11-25 00:41:00,
2013-11-24 18:46:00,19.8,10.2,30.30,SSW,202,12.5,13.8,66,0.00,,OVC,0.00,WeatherDisplay:10.37,2013-11-25 00:46:00,
2013-11-24 18:51:00,19.8,10.2,30.30,SSW,202,14.5,14.5,66,0.00,,OVC,0.00,WeatherDisplay:10.37,2013-11-25 00:51:00,
2013-11-24 18:56:00,19.6,9.7,30.30,SSW,202,13.7,13.8,65,0.00,,OVC,0.00,WeatherDisplay:10.37,2013-11-25 00:56:00,
2013-11-24 19:01:00,19.6,10.1,30.30,South,180,13.5,13.8,66,0.00,,OVC,0.00,WeatherDisplay:10.37,2013-11-25 01:01:00,
2013-11-24 19:06:00,19.6,9.7,30.30,South,180,13.9,13.9,65,0.00,,OVC,0.00,WeatherDisplay:10.37,2013-11-25 01:06:00,
2013-11-24 19:11:00,19.4,9.5,30.29,South,180,14.0,14.0,65,0.00,,OVC,0.00,WeatherDisplay:10.37,2013-11-25 01:11:00,
2013-11-24 19:16:00,19.4,9.5,30.29,South,180,12.1,12.1,65,0.00,,OVC,0.00,WeatherDisplay:10.37,2013-11-25 01:16:00,
2013-11-24 19:21:00,19.4,9.5,30.29,SSW,202,12.1,13.8,65,0.00,,OVC,0.00,WeatherDisplay:10.37,2013-11-25 01:21:00,
2013-11-24 19:26:00,19.6,9.7,30.28,SSW,202,13.0,13.8,65,0.00,,OVC,0.00,WeatherDisplay:10.37,2013-11-25 01:26:00,
2013-11-24 19:31:00,19.6,10.1,30.28,SSW,202,12.5,13.8,66,0.00,,OVC,0.00,WeatherDisplay:10.37,2013-11-25 01:31:00,
2013-11-24 19:36:00,19.8,9.9,30.28,SSW,202,12.8,16.1,65,0.00,,OVC,0.00,WeatherDisplay:10.37,2013-11-25 01:36:00,
2013-11-24 19:41:00,19.8,9.9,30.28,SSW,202,10.9,12.7,65,0.00,,OVC,0.00,WeatherDisplay:10.37,2013-11-25 01:41:00,
2013-11-24 19:46:00,19.8,9.9,30.28,SSW,202,12.1,12.1,65,0.00,,OVC,0.00,WeatherDisplay:10.37,2013-11-25 01:46:00,
2013-11-24 19:51:00,19.6,9.7,30.27,South,180,12.3,12.3,65,0.00,,OVC,0.00,WeatherDisplay:10.37,2013-11-25 01:51:00,
2013-11-24 19:56:00,19.8,9.9,30.28,South,180,12.1,12.1,65,0.00,,OVC,0.00,WeatherDisplay:10.37,2013-11-25 01:56:00,
2013-11-24 20:01:00,19.6,10.1,30.27,SSW,202,15.0,15.0,66,0.00,,OVC,0.00,WeatherDisplay:10.37,2013-11-25 02:01:00,
2013-11-24 20:06:00,19.6,10.1,30.27,South,180,12.1,12.7,66,0.00,,OVC,0.00,WeatherDisplay:10.37,2013-11-25 02:06:00,
2013-11-24 20:11:00,19.8,10.2,30.26,SSW,202,13.5,17.3,66,0.00,,OVC,0.00,WeatherDisplay:10.37,2013-11-25 02:11:00,
2013-11-24 20:16:00,19.8,10.2,30.27,SSW,202,12.1,12.7,66,0.00,,OVC,0.00,WeatherDisplay:10.37,2013-11-25 02:16:00,
2013-11-24 20:21:00,19.8,10.2,30.26,SSW,202,10.5,12.7,66,0.00,,OVC,0.00,WeatherDisplay:10.37,2013-11-25 02:21:00,
2013-11-24 20:26:00,19.8,10.2,30.26,SSW,202,15.2,15.2,66,0.00,,OVC,0.00,WeatherDisplay:10.37,2013-11-25 02:26:00,
2013-11-24 20:31:00,19.8,10.2,30.26,SSW,202,14.7,15.0,66,0.00,,OVC,0.00,WeatherDisplay:10.37,2013-11-25 02:31:00,
2013-11-24 20:36:00,19.8,10.2,30.26,South,180,12.5,13.8,66,0.00,,OVC,0.00,WeatherDisplay:10.37,2013-11-25 02:36:00,
2013-11-24 20:41:00,19.8,10.2,30.26,SSW,202,15.2,15.2,66,0.00,,OVC,0.00,WeatherDisplay:10.37,2013-11-25 02:41:00,
2013-11-24 20:46:00,19.8,10.2,30.26,South,180,12.8,12.8,66,0.00,,OVC,0.00,WeatherDisplay:10.37,2013-11-25 02:46:00,
2013-11-24 20:51:00,19.8,10.2,30.26,SSW,202,12.8,12.8,66,0.00,,OVC,0.00,WeatherDisplay:10.37,2013-11-25 02:51:00,
2013-11-24 20:56:00,19.8,10.2,30.26,SSW,202,9.7,12.7,66,0.00,,OVC,0.00,WeatherDisplay:10.37,2013-11-25 02:56:00,
2013-11-24 21:01:00,19.8,10.2,30.26,SSW,202,10.7,15.0,66,0.00,,OVC,0.00,WeatherDisplay:10.37,2013-11-25 03:01:00,
2013-11-24 21:06:00,19.6,10.1,30.26,South,180,15.4,16.1,66,0.00,,OVC,0.00,WeatherDisplay:10.37,2013-11-25 03:06:00,
2013-11-24 21:11:00,19.6,10.1,30.25,SSW,202,13.9,17.3,66,0.00,,OVC,0.00,WeatherDisplay:10.37,2013-11-25 03:11:00,
2013-11-24 21:16:00,19.8,10.2,30.25,SSW,202,13.2,13.2,66,0.00,,OVC,0.00,WeatherDisplay:10.37,2013-11-25 03:16:00,
2013-11-24 21:22:00,19.8,10.2,30.25,South,180,12.3,13.8,66,0.00,,OVC,0.00,WeatherDisplay:10.37,2013-11-25 03:22:00,
2013-11-24 21:27:00,19.8,10.2,30.25,SSW,202,13.2,16.1,66,0.00,,OVC,0.00,WeatherDisplay:10.37,2013-11-25 03:27:00,
2013-11-24 21:32:00,19.8,10.2,30.25,SSW,202,10.5,13.8,66,0.00,,OVC,0.00,WeatherDisplay:10.37,2013-11-25 03:32:00,
2013-11-24 21:37:00,19.8,10.2,30.25,South,180,11.8,13.8,66,0.00,,OVC,0.00,WeatherDisplay:10.37,2013-11-25 03:37:00,
2013-11-24 21:42:00,19.6,10.1,30.25,South,180,12.8,12.8,66,0.00,,OVC,0.00,WeatherDisplay:10.37,2013-11-25 03:42:00,
2013-11-24 21:47:00,19.6,10.1,30.24,SSW,202,11.4,11.5,66,0.00,,OVC,0.00,WeatherDisplay:10.37,2013-11-25 03:47:00,
2013-11-24 21:52:00,19.6,10.1,30.24,SSW,202,15.6,15.6,66,0.00,,OVC,0.00,WeatherDisplay:10.37,2013-11-25 03:52:00,
2013-11-24 21:57:00,19.4,9.9,30.24,South,180,12.1,13.8,66,0.00,,OVC,0.00,WeatherDisplay:10.37,2013-11-25 03:57:00,
2013-11-24 22:02:00,19.4,9.9,30.24,SSW,202,14.0,14.0,66,0.00,,OVC,0.00,WeatherDisplay:10.37,2013-11-25 04:02:00,
2013-11-24 22:07:00,19.2,9.7,30.24,South,180,12.8,15.0,66,0.00,,OVC,0.00,WeatherDisplay:10.37,2013-11-25 04:07:00,
2013-11-24 22:12:00,19.2,10.0,30.24,SSW,202,13.0,15.0,67,0.00,,OVC,0.00,WeatherDisplay:10.37,2013-11-25 04:12:00,
2013-11-24 22:17:00,19.4,10.2,30.24,SSW,202,13.9,13.9,67,0.00,,OVC,0.00,WeatherDisplay:10.37,2013-11-25 04:17:00,
2013-11-24 22:22:00,19.4,10.2,30.24,SSW,202,12.8,15.0,67,0.00,,OVC,0.00,WeatherDisplay:10.37,2013-11-25 04:22:00,
2013-11-24 22:27:00,19.4,10.2,30.23,South,180,16.6,16.6,67,0.00,,OVC,0.00,WeatherDisplay:10.37,2013-11-25 04:27:00,
2013-11-24 22:32:00,19.4,9.9,30.23,SSW,202,17.3,17.3,66,0.00,,OVC,0.00,WeatherDisplay:10.37,2013-11-25 04:32:00,
2013-11-24 22:37:00,19.2,9.7,30.23,SSW,202,13.7,13.8,66,0.00,,OVC,0.00,WeatherDisplay:10.37,2013-11-25 04:37:00,
2013-11-24 22:42:00,19.2,9.7,30.23,South,180,16.6,16.6,66,0.00,,OVC,0.00,WeatherDisplay:10.37,2013-11-25 04:42:00,
2013-11-24 22:47:00,19.2,9.7,30.23,South,180,14.0,14.0,66,0.00,,OVC,0.00,WeatherDisplay:10.37,2013-11-25 04:47:00,
2013-11-24 22:52:00,19.2,9.7,30.23,SSW,202,15.0,15.0,66,0.00,,OVC,0.00,WeatherDisplay:10.37,2013-11-25 04:52:00,
2013-11-24 22:57:00,19.4,9.9,30.23,SSW,202,13.5,15.0,66,0.00,,OVC,0.00,WeatherDisplay:10.37,2013-11-25 04:57:00,
2013-11-24 23:01:00,19.4,9.9,30.23,South,180,9.9,13.8,66,0.00,,OVC,0.00,WeatherDisplay:10.37,2013-11-25 05:01:00,
2013-11-24 23:06:00,19.2,10.0,30.23,SSW,202,13.9,13.9,67,0.00,,OVC,0.00,WeatherDisplay:10.37,2013-11-25 05:06:00,
2013-11-24 23:11:00,19.4,9.9,30.23,SSW,202,12.5,12.5,66,0.00,,OVC,0.00,WeatherDisplay:10.37,2013-11-25 05:11:00,
2013-11-24 23:16:00,19.2,9.7,30.23,SSW,202,12.5,13.8,66,0.00,,OVC,0.00,WeatherDisplay:10.37,2013-11-25 05:16:00,
2013-11-24 23:21:00,19.2,9.7,30.23,SSW,202,9.9,15.0,66,0.00,,OVC,0.00,WeatherDisplay:10.37,2013-11-25 05:21:00,
2013-11-24 23:27:00,19.4,9.9,30.23,South,180,13.9,13.9,66,0.00,,OVC,0.00,WeatherDisplay:10.37,2013-11-25 05:27:00,
2013-11-24 23:32:00,19.4,10.2,30.22,SSW,202,9.9,16.1,67,0.00,,OVC,0.00,WeatherDisplay:10.37,2013-11-25 05:32:00,
2013-11-24 23:37:00,19.4,9.9,30.22,SSW,202,13.5,15.0,66,0.00,,OVC,0.00,WeatherDisplay:10.37,2013-11-25 05:37:00,
2013-11-24 23:42:00,19.4,9.9,30.21,SSW,202,10.9,15.0,66,0.00,,OVC,0.00,WeatherDisplay:10.37,2013-11-25 05:42:00,
2013-11-24 23:47:00,19.4,9.9,30.21,SSW,202,14.3,14.3,66,0.00,,OVC,0.00,WeatherDisplay:10.37,2013-11-25 05:47:00,
2013-11-24 23:52:00,19.4,9.9,30.20,South,180,11.2,15.0,66,0.00,,OVC,0.00,WeatherDisplay:10.37,2013-11-25 05:52:00,
2013-11-24 23:57:00,19.6,10.1,30.20,SSW,202,12.8,12.8,66,0.00,,OVC,0.00,WeatherDisplay:10.37,2013-11-25 05:57:00,